Time;durP1;ratioP1;P1;durP2;ratioP2;P2;SDS_P1;SDS_P2;PMS_P1;PMS_P2;Temp;Humidity;BMP_temperature;BMP_pressure;BME280_temperature;BME280_humidity;BME280_pressure;Samples;Min_cycle;Max_cycle;Signal;HPM_P1;HPM_P2
2023/04/24 00:01:40;;;;;;;2.00;1.10;;;16.80;29.60;;;;;;5030550;28;20595;-70
2023/04/24 00:04:06;;;;;;;2.00;1.20;;;16.80;30.50;;;;;;5028506;28;20192;-70
2023/04/24 00:06:33;;;;;;;2.10;1.27;;;16.70;31.40;;;;;;5028945;28;20228;-70
2023/04/24 00:09:03;;;;;;;2.00;1.20;;;16.70;29.70;;;;;;5031133;28;20458;-70
2023/04/24 00:11:29;;;;;;;2.27;1.40;;;16.80;30.20;;;;;;5030509;28;20425;-69
2023/04/24 00:13:55;;;;;;;2.10;1.20;;;16.80;29.10;;;;;;5033296;28;20418;-70
2023/04/24 00:16:21;;;;;;;2.03;1.20;;;16.50;29.30;;;;;;5031967;28;20459;-70
2023/04/24 00:18:47;;;;;;;2.10;1.20;;;16.10;30.50;;;;;;5034618;28;20832;-70
2023/04/24 00:21:14;;;;;;;2.10;1.20;;;16.20;29.90;;;;;;5034699;28;20427;-70
2023/04/24 00:23:40;;;;;;;2.13;1.30;;;16.20;31.30;;;;;;5034778;28;20265;-70
2023/04/24 00:26:06;;;;;;;2.00;1.20;;;16.40;29.80;;;;;;5033527;28;20502;-70
2023/04/24 00:28:31;;;;;;;2.97;1.60;;;16.60;30.00;;;;;;5032120;28;20694;-70
2023/04/24 00:30:57;;;;;;;2.10;1.20;;;16.50;29.30;;;;;;5030722;28;20663;-69
2023/04/24 00:33:22;;;;;;;2.13;1.33;;;16.40;29.90;;;;;;5034014;28;20177;-71
2023/04/24 00:35:48;;;;;;;2.27;1.43;;;16.60;30.80;;;;;;5030131;28;20358;-70
2023/04/24 00:38:14;;;;;;;2.00;1.20;;;16.40;30.60;;;;;;5031560;28;20647;-70
2023/04/24 00:40:39;;;;;;;2.10;1.20;;;16.40;29.90;;;;;;5032778;28;20192;-70
2023/04/24 00:43:05;;;;;;;2.30;1.40;;;16.50;31.30;;;;;;5033418;28;20187;-70
2023/04/24 00:45:31;;;;;;;2.03;1.20;;;16.80;31.50;;;;;;5033074;28;20184;-70
2023/04/24 00:47:57;;;;;;;2.20;1.40;;;16.80;29.30;;;;;;5031247;28;20213;-70
2023/04/24 00:50:25;;;;;;;2.10;1.30;;;16.70;29.20;;;;;;5032945;28;20184;-70
2023/04/24 00:52:50;;;;;;;2.70;1.63;;;16.80;29.10;;;;;;5033416;28;20434;-70
2023/04/24 00:55:17;;;;;;;2.10;1.20;;;16.80;29.70;;;;;;5030979;28;20847;-70
2023/04/24 00:57:43;;;;;;;2.00;1.20;;;16.90;30.20;;;;;;5032364;28;20209;-70
2023/04/24 01:00:10;;;;;;;2.10;1.30;;;16.80;29.80;;;;;;5029825;28;20493;-70
2023/04/24 01:02:39;;;;;;;2.13;1.33;;;17.00;29.30;;;;;;5032410;28;20978;-69
2023/04/24 01:05:07;;;;;;;2.00;1.20;;;17.10;30.60;;;;;;5031426;28;20788;-70
2023/04/24 01:07:33;;;;;;;2.10;1.20;;;17.10;31.50;;;;;;5032887;28;20521;-70
2023/04/24 01:09:59;;;;;;;2.10;1.30;;;16.90;31.50;;;;;;5031770;28;20957;-70
2023/04/24 01:12:24;;;;;;;2.10;1.30;;;16.80;30.90;;;;;;5031779;28;20186;-70
2023/04/24 01:14:50;;;;;;;2.37;1.40;;;16.70;32.80;;;;;;5030729;28;20443;-70
2023/04/24 01:17:16;;;;;;;2.20;1.40;;;16.60;33.10;;;;;;5032330;28;20204;-70
2023/04/24 01:19:44;;;;;;;2.10;1.30;;;16.60;37.50;;;;;;5031103;28;20667;-69
2023/04/24 01:22:14;;;;;;;2.00;1.20;;;16.30;37.50;;;;;;5032001;28;20616;-70
2023/04/24 01:24:41;;;;;;;2.00;1.20;;;16.10;36.80;;;;;;5030696;28;20442;-70
2023/04/24 01:27:08;;;;;;;2.03;1.20;;;16.20;36.20;;;;;;5025974;28;20528;-70
2023/04/24 01:29:34;;;;;;;2.10;1.30;;;16.30;37.20;;;;;;5029110;28;20475;-70
2023/04/24 01:32:00;;;;;;;2.20;1.30;;;16.50;39.70;;;;;;5031194;28;20463;-70
2023/04/24 01:34:26;;;;;;;2.20;1.40;;;16.40;37.60;;;;;;5030664;28;20522;-70
2023/04/24 01:36:51;;;;;;;2.10;1.20;;;16.10;38.20;;;;;;5030825;28;20681;-70
2023/04/24 01:39:17;;;;;;;2.10;1.23;;;16.20;39.90;;;;;;5030490;28;20559;-69
2023/04/24 01:41:43;;;;;;;2.20;1.23;;;16.10;40.50;;;;;;5030074;28;20721;-69
2023/04/24 01:44:08;;;;;;;2.10;1.20;;;16.00;41.30;;;;;;5032968;28;20658;-70
2023/04/24 01:46:35;;;;;;;2.13;1.30;;;15.90;42.40;;;;;;5028840;28;20582;-71
2023/04/24 01:49:02;;;;;;;2.17;1.30;;;15.90;42.10;;;;;;5028320;28;20493;-69
2023/04/24 01:51:27;;;;;;;2.20;1.30;;;16.00;41.30;;;;;;5027979;28;20605;-70
2023/04/24 01:53:53;;;;;;;2.17;1.30;;;16.00;41.40;;;;;;5031062;28;20562;-70
2023/04/24 01:56:21;;;;;;;2.20;1.27;;;16.00;41.90;;;;;;5023204;28;20316;-70
2023/04/24 01:58:48;;;;;;;2.20;1.20;;;16.10;41.50;;;;;;5030296;28;20670;-70
2023/04/24 02:01:20;;;;;;;2.30;1.40;;;16.10;41.80;;;;;;5030470;28;20431;-70
2023/04/24 02:03:46;;;;;;;2.30;1.30;;;16.00;42.20;;;;;;5028784;28;20431;-70
2023/04/24 02:06:12;;;;;;;2.20;1.30;;;16.10;42.40;;;;;;5031795;28;20968;-70
2023/04/24 02:08:37;;;;;;;2.50;1.40;;;16.10;42.30;;;;;;5031563;28;20555;-70
2023/04/24 02:11:03;;;;;;;2.17;1.20;;;16.00;42.60;;;;;;5031176;28;20281;-70
2023/04/24 02:13:29;;;;;;;2.30;1.40;;;16.00;42.60;;;;;;5032518;28;20181;-70
2023/04/24 02:15:55;;;;;;;2.20;1.30;;;16.00;43.70;;;;;;5032447;28;20208;-70
2023/04/24 02:18:22;;;;;;;2.20;1.30;;;16.00;44.40;;;;;;5030830;28;20188;-70
2023/04/24 02:20:48;;;;;;;2.20;1.30;;;16.10;43.20;;;;;;5031349;28;20183;-70
2023/04/24 02:23:13;;;;;;;2.20;1.30;;;16.00;44.00;;;;;;5032142;28;20418;-70
2023/04/24 02:25:39;;;;;;;2.20;1.30;;;16.10;43.50;;;;;;5030852;28;20232;-70
2023/04/24 02:28:05;;;;;;;2.20;1.30;;;15.90;44.20;;;;;;5031506;28;20208;-70
2023/04/24 02:30:30;;;;;;;2.10;1.13;;;15.80;45.20;;;;;;5031537;28;20474;-69
2023/04/24 02:32:56;;;;;;;2.10;1.20;;;15.80;42.60;;;;;;5029790;28;20237;-70
2023/04/24 02:35:21;;;;;;;2.30;1.50;;;15.80;44.70;;;;;;5027608;28;20651;-70
2023/04/24 02:37:47;;;;;;;2.23;1.40;;;15.70;45.70;;;;;;5026411;28;20702;-70
2023/04/24 02:40:13;;;;;;;2.10;1.20;;;15.60;46.40;;;;;;5029855;28;20724;-70
2023/04/24 02:42:38;;;;;;;2.30;1.40;;;15.60;46.80;;;;;;5030364;28;20273;-70
2023/04/24 02:45:04;;;;;;;2.10;1.20;;;15.50;46.50;;;;;;5030656;28;20688;-70
2023/04/24 02:47:30;;;;;;;3.07;1.57;;;15.60;46.70;;;;;;5029420;28;20783;-69
2023/04/24 02:49:56;;;;;;;2.30;1.30;;;15.40;47.00;;;;;;5028458;28;20524;-70
2023/04/24 02:52:21;;;;;;;2.30;1.40;;;15.50;47.50;;;;;;5028876;28;20180;-70
2023/04/24 02:54:47;;;;;;;2.40;1.47;;;15.50;47.80;;;;;;5031415;28;20601;-70
2023/04/24 02:57:12;;;;;;;2.20;1.20;;;15.50;47.00;;;;;;5031336;28;20201;-69
2023/04/24 02:59:38;;;;;;;2.20;1.20;;;15.40;47.90;;;;;;5031432;28;20693;-70
2023/04/24 03:02:04;;;;;;;2.20;1.20;;;15.50;47.60;;;;;;5027109;28;20272;-70
2023/04/24 03:04:29;;;;;;;2.27;1.30;;;15.60;47.30;;;;;;5029033;28;20190;-70
2023/04/24 03:06:56;;;;;;;2.17;1.17;;;15.60;46.80;;;;;;5030658;28;20207;-70
2023/04/24 03:09:22;;;;;;;2.30;1.27;;;15.60;47.20;;;;;;5030799;28;20244;-70
2023/04/24 03:11:49;;;;;;;2.20;1.20;;;15.50;47.50;;;;;;5023386;28;20500;-70
2023/04/24 03:14:15;;;;;;;2.27;1.30;;;15.60;46.50;;;;;;5030500;28;20531;-71
2023/04/24 03:16:40;;;;;;;2.20;1.20;;;15.50;43.90;;;;;;5030417;28;20463;-70
2023/04/24 03:19:06;;;;;;;2.23;1.20;;;15.40;44.70;;;;;;5030626;28;20475;-70
2023/04/24 03:21:32;;;;;;;2.40;1.37;;;14.90;47.50;;;;;;5029652;28;20605;-70
2023/04/24 03:23:57;;;;;;;2.47;1.40;;;15.10;47.70;;;;;;5030531;28;20179;-70
2023/04/24 03:26:23;;;;;;;2.20;1.20;;;15.20;48.50;;;;;;5030963;28;20211;-71
2023/04/24 03:28:48;;;;;;;2.30;1.30;;;15.40;48.40;;;;;;5028475;28;20193;-71
2023/04/24 03:31:15;;;;;;;2.30;1.30;;;15.40;48.60;;;;;;5030265;28;20215;-70
2023/04/24 03:33:40;;;;;;;2.30;1.30;;;15.40;47.20;;;;;;5028180;28;20172;-71
2023/04/24 03:36:06;;;;;;;2.20;1.20;;;15.50;47.90;;;;;;5026382;28;20516;-70
2023/04/24 03:38:32;;;;;;;2.20;1.23;;;15.50;48.00;;;;;;5029269;28;20561;-69
2023/04/24 03:40:58;;;;;;;2.50;1.47;;;15.50;44.40;;;;;;5030046;28;20479;-69
2023/04/24 03:43:23;;;;;;;2.30;1.30;;;15.00;45.20;;;;;;5029392;28;20534;-70
2023/04/24 03:45:49;;;;;;;2.30;1.23;;;15.00;46.00;;;;;;5029525;28;20710;-70
2023/04/24 03:48:14;;;;;;;2.27;1.20;;;14.40;47.30;;;;;;5044026;23;20222;-70
2023/04/24 03:50:40;;;;;;;3.20;1.73;;;14.80;48.30;;;;;;5035476;28;20246;-69
2023/04/24 03:53:06;;;;;;;2.20;1.20;;;14.50;46.10;;;;;;5025686;28;20743;-70
2023/04/24 03:55:31;;;;;;;2.30;1.20;;;14.60;48.60;;;;;;5020866;28;20192;-69
2023/04/24 03:57:57;;;;;;;2.30;1.30;;;14.70;49.20;;;;;;5019206;28;20209;-70
2023/04/24 04:00:22;;;;;;;2.50;1.40;;;14.90;48.60;;;;;;5020469;28;20189;-70
2023/04/24 04:02:48;;;;;;;2.30;1.30;;;15.10;48.20;;;;;;5014240;28;20195;-70
2023/04/24 04:05:14;;;;;;;2.30;1.20;;;15.10;48.50;;;;;;5014088;28;20601;-70
2023/04/24 04:07:39;;;;;;;2.47;1.37;;;15.10;48.50;;;;;;5018819;28;20234;-70
2023/04/24 04:10:06;;;;;;;2.30;1.20;;;15.00;48.50;;;;;;5019973;28;20226;-70
2023/04/24 04:12:32;;;;;;;2.30;1.20;;;14.90;48.50;;;;;;5015488;28;20325;-70
2023/04/24 04:14:58;;;;;;;2.30;1.20;;;15.00;48.40;;;;;;5013858;28;20405;-70
2023/04/24 04:17:23;;;;;;;2.30;1.20;;;15.00;48.30;;;;;;5013313;28;20201;-69
2023/04/24 04:19:49;;;;;;;2.40;1.20;;;15.00;48.40;;;;;;5017366;28;20173;-70
2023/04/24 04:22:15;;;;;;;2.50;1.30;;;15.10;49.00;;;;;;5015139;28;20189;-69
2023/04/24 04:24:40;;;;;;;2.50;1.30;;;15.20;48.50;;;;;;5014877;28;20244;-70
2023/04/24 04:27:06;;;;;;;2.50;1.30;;;15.30;48.00;;;;;;5013892;28;20236;-70
2023/04/24 04:29:32;;;;;;;2.30;1.20;;;15.40;48.30;;;;;;5018468;28;20185;-70
2023/04/24 04:31:58;;;;;;;2.40;1.20;;;15.30;48.20;;;;;;5012131;28;20420;-70
2023/04/24 04:34:24;;;;;;;2.40;1.20;;;15.30;49.10;;;;;;5013143;28;20482;-70
2023/04/24 04:36:50;;;;;;;2.30;1.10;;;15.30;48.60;;;;;;5014000;28;20958;-70
2023/04/24 04:39:16;;;;;;;2.50;1.30;;;15.30;48.90;;;;;;5010061;28;20547;-70
2023/04/24 04:41:42;;;;;;;2.57;1.20;;;15.30;48.80;;;;;;5005936;28;20619;-70
2023/04/24 04:44:08;;;;;;;2.43;1.20;;;15.30;48.70;;;;;;5013283;28;20511;-70
2023/04/24 04:46:36;;;;;;;2.50;1.23;;;15.40;48.60;;;;;;5012222;28;20214;-70
2023/04/24 04:49:02;;;;;;;2.67;1.30;;;15.40;48.80;;;;;;5012217;28;20751;-70
2023/04/24 04:51:28;;;;;;;2.50;1.20;;;15.30;47.00;;;;;;5015844;28;20440;-70
2023/04/24 04:53:54;;;;;;;2.60;1.30;;;14.70;48.90;;;;;;5011457;28;20446;-70
2023/04/24 04:56:20;;;;;;;2.47;1.20;;;13.60;56.00;;;;;;5011191;28;20437;-70
2023/04/24 04:58:46;;;;;;;2.50;1.30;;;13.30;63.00;;;;;;5012160;28;20213;-70
2023/04/24 05:01:11;;;;;;;2.67;1.40;;;12.60;72.00;;;;;;5018114;28;20459;-71
2023/04/24 05:03:37;;;;;;;2.60;1.20;;;12.40;77.20;;;;;;5013730;28;20217;-70
2023/04/24 05:06:02;;;;;;;2.60;1.17;;;12.70;67.90;;;;;;5012061;28;20192;-70
2023/04/24 05:08:28;;;;;;;2.63;1.20;;;12.50;67.40;;;;;;5012309;28;20683;-70
2023/04/24 05:10:55;;;;;;;2.60;1.17;;;12.80;67.50;;;;;;5012239;28;20189;-69
2023/04/24 05:13:20;;;;;;;2.70;1.20;;;13.10;62.90;;;;;;5008500;28;20174;-71
2023/04/24 05:15:46;;;;;;;3.10;1.37;;;13.20;64.00;;;;;;5009440;28;20795;-70
2023/04/24 05:18:12;;;;;;;2.67;1.10;;;13.00;59.70;;;;;;5011630;28;20634;-70
2023/04/24 05:20:37;;;;;;;2.73;1.20;;;12.90;57.20;;;;;;5009843;28;20513;-70
2023/04/24 05:23:03;;;;;;;2.90;1.33;;;13.10;53.90;;;;;;5010640;28;20232;-70
2023/04/24 05:25:31;;;;;;;3.10;1.47;;;13.30;54.40;;;;;;5007913;28;20665;-70
2023/04/24 05:27:57;;;;;;;2.80;1.20;;;13.20;54.40;;;;;;5012540;28;20589;-70
2023/04/24 05:30:23;;;;;;;2.90;1.30;;;13.20;50.50;;;;;;5010796;28;20440;-70
2023/04/24 05:32:48;;;;;;;2.90;1.30;;;13.10;52.20;;;;;;5009527;28;20602;-71
2023/04/24 05:35:14;;;;;;;2.93;1.27;;;13.30;52.50;;;;;;5007458;28;20586;-70
2023/04/24 05:37:39;;;;;;;2.80;1.20;;;13.00;50.80;;;;;;5012058;28;20211;-70
2023/04/24 05:40:06;;;;;;;3.00;1.30;;;12.60;53.60;;;;;;5010147;28;20200;-70
2023/04/24 05:42:32;;;;;;;3.43;1.57;;;12.50;54.80;;;;;;5016298;28;20662;-70
2023/04/24 05:44:57;;;;;;;2.97;1.23;;;12.50;57.60;;;;;;5010065;28;20436;-70
2023/04/24 05:47:23;;;;;;;3.07;1.20;;;13.10;56.10;;;;;;5009781;28;20475;-69
2023/04/24 05:49:48;;;;;;;3.53;1.50;;;13.00;55.30;;;;;;5010169;28;20328;-70
2023/04/24 05:52:14;;;;;;;3.30;1.57;;;13.10;53.00;;;;;;5010314;28;20275;-70
2023/04/24 05:54:40;;;;;;;3.03;1.20;;;13.20;49.40;;;;;;5009849;28;20561;-70
2023/04/24 05:57:07;;;;;;;2.93;1.20;;;13.40;49.90;;;;;;5009356;28;20558;-70
2023/04/24 05:59:40;;;;;;;3.53;1.40;;;13.30;53.10;;;;;;5011992;28;20177;-70
2023/04/24 06:02:07;;;;;;;3.00;1.20;;;13.50;51.30;;;;;;5009034;28;20424;-70
2023/04/24 06:04:33;;;;;;;3.10;1.30;;;13.70;50.20;;;;;;5016651;28;20511;-70
2023/04/24 06:06:59;;;;;;;3.00;1.20;;;13.60;47.30;;;;;;5011536;28;20491;-69
2023/04/24 06:09:25;;;;;;;3.10;1.30;;;13.70;47.00;;;;;;5009503;28;20499;-70
2023/04/24 06:11:56;;;;;;;3.50;1.50;;;13.80;46.80;;;;;;5008905;28;20420;-69
2023/04/24 06:14:22;;;;;;;3.10;1.30;;;13.60;48.30;;;;;;5029525;28;20434;-69
2023/04/24 06:16:47;;;;;;;3.40;1.57;;;13.60;46.90;;;;;;5007255;28;20448;-70
2023/04/24 06:19:13;;;;;;;2.90;1.20;;;13.40;47.70;;;;;;5011969;28;20185;-70
2023/04/24 06:21:39;;;;;;;2.93;1.20;;;13.90;48.70;;;;;;5012333;28;20255;-69
2023/04/24 06:24:04;;;;;;;3.23;1.60;;;14.10;46.70;;;;;;5009894;28;20652;-70
2023/04/24 06:26:30;;;;;;;2.90;1.30;;;13.90;45.70;;;;;;5012882;28;20225;-71
2023/04/24 06:28:56;;;;;;;2.70;1.10;;;13.30;47.50;;;;;;5011024;28;20197;-70
2023/04/24 06:31:22;;;;;;;2.80;1.30;;;13.20;49.90;;;;;;5009420;28;20173;-69
2023/04/24 06:33:48;;;;;;;2.90;1.30;;;12.90;48.90;;;;;;5009843;28;20213;-69
2023/04/24 06:36:14;;;;;;;2.80;1.20;;;13.40;51.70;;;;;;5013792;28;20659;-70
2023/04/24 06:38:39;;;;;;;2.80;1.20;;;13.50;47.00;;;;;;5007798;28;20508;-71
2023/04/24 06:41:05;;;;;;;2.70;1.30;;;13.80;44.30;;;;;;5007898;28;20239;-70
2023/04/24 06:43:34;;;;;;;2.70;1.20;;;13.40;47.70;;;;;;5007136;28;20185;-69
2023/04/24 06:46:00;;;;;;;2.90;1.50;;;13.70;47.40;;;;;;5009714;28;20252;-72
2023/04/24 06:48:25;;;;;;;3.30;1.90;;;13.80;47.70;;;;;;5008191;28;20491;-72
2023/04/24 06:50:52;;;;;;;2.60;1.30;;;13.80;46.60;;;;;;5009938;28;20428;-71
2023/04/24 06:53:17;;;;;;;2.50;1.30;;;14.00;46.30;;;;;;5009685;28;20179;-71
2023/04/24 06:55:44;;;;;;;2.30;1.20;;;13.80;44.70;;;;;;5009472;28;20467;-72
2023/04/24 06:58:10;;;;;;;2.40;1.30;;;13.80;45.30;;;;;;5012023;28;21013;-72
2023/04/24 07:00:36;;;;;;;2.40;1.27;;;13.90;40.70;;;;;;5012687;28;20445;-72
2023/04/24 07:03:02;;;;;;;2.40;1.30;;;13.80;42.70;;;;;;5010631;28;20432;-72
2023/04/24 07:05:29;;;;;;;2.30;1.20;;;13.90;44.10;;;;;;5007265;28;20294;-68
2023/04/24 07:07:54;;;;;;;2.20;1.10;;;13.70;41.70;;;;;;5011960;28;20507;-68
2023/04/24 07:10:20;;;;;;;2.27;1.23;;;13.90;41.70;;;;;;5008500;28;20524;-68
2023/04/24 07:12:47;;;;;;;2.40;1.43;;;13.80;43.70;;;;;;5004609;28;20184;-68
2023/04/24 07:15:12;;;;;;;2.43;1.50;;;14.30;41.20;;;;;;5009642;28;20529;-71
2023/04/24 07:17:38;;;;;;;2.20;1.40;;;14.10;41.20;;;;;;5010519;28;20530;-71
2023/04/24 07:20:05;;;;;;;2.30;1.33;;;14.00;41.00;;;;;;5008977;28;20637;-71
2023/04/24 07:22:31;;;;;;;2.00;1.30;;;14.30;44.10;;;;;;5009784;28;20583;-71
2023/04/24 07:24:56;;;;;;;2.00;1.20;;;14.20;42.30;;;;;;5011302;28;20421;-71
2023/04/24 07:27:22;;;;;;;2.00;1.30;;;14.50;39.50;;;;;;5010444;28;20211;-71
2023/04/24 07:29:47;;;;;;;2.03;1.30;;;13.90;41.50;;;;;;5012202;28;20175;-67
2023/04/24 07:32:13;;;;;;;1.90;1.20;;;14.10;42.50;;;;;;5011542;28;20180;-68
2023/04/24 07:34:39;;;;;;;2.20;1.30;;;13.80;44.00;;;;;;5010070;28;20185;-67
2023/04/24 07:37:05;;;;;;;2.23;1.30;;;13.70;45.00;;;;;;5012945;28;20196;-67
2023/04/24 07:39:30;;;;;;;2.20;1.20;;;13.60;46.10;;;;;;5014340;28;20158;-67
2023/04/24 07:42:02;;;;;;;2.40;1.30;;;13.20;51.50;;;;;;5021536;28;20520;-68
2023/04/24 07:44:27;;;;;;;2.30;1.20;;;13.20;53.20;;;;;;5012067;28;20295;-67
2023/04/24 07:46:53;;;;;;;2.33;1.20;;;12.90;54.50;;;;;;5010387;28;20536;-67
2023/04/24 07:49:19;;;;;;;2.20;1.10;;;12.70;56.10;;;;;;5010549;28;20218;-67
2023/04/24 07:51:45;;;;;;;2.30;1.30;;;13.10;54.90;;;;;;5006619;28;20512;-69
2023/04/24 07:54:10;;;;;;;2.20;1.20;;;13.60;51.90;;;;;;5005486;28;20190;-66
2023/04/24 07:56:38;;;;;;;2.40;1.40;;;13.30;47.90;;;;;;5010453;28;20460;-67
2023/04/24 07:59:04;;;;;;;2.20;1.30;;;13.30;48.40;;;;;;5008676;28;20188;-68
2023/04/24 08:01:30;;;;;;;2.30;1.20;;;13.00;44.00;;;;;;5005832;28;20433;-67
2023/04/24 08:03:56;;;;;;;2.30;1.30;;;12.70;47.30;;;;;;5003149;28;20434;-70
2023/04/24 08:06:22;;;;;;;2.20;1.20;;;13.30;46.20;;;;;;5002836;28;20190;-69
2023/04/24 08:08:47;;;;;;;6.10;1.80;;;13.50;43.20;;;;;;5008717;28;20644;-68
2023/04/24 08:11:13;;;;;;;2.20;1.30;;;13.90;39.60;;;;;;5015651;28;20595;-70
2023/04/24 08:13:38;;;;;;;2.30;1.40;;;13.50;41.60;;;;;;5017076;28;20238;-70
2023/04/24 08:16:04;;;;;;;2.10;1.30;;;13.90;42.30;;;;;;5017162;28;20201;-69
2023/04/24 08:18:30;;;;;;;2.00;1.20;;;14.40;39.10;;;;;;5009547;28;20189;-68
2023/04/24 08:21:01;;;;;;;2.30;1.40;;;14.00;39.10;;;;;;5018739;28;20181;-69
2023/04/24 08:23:26;;;;;;;3.03;1.70;;;14.20;38.50;;;;;;5008064;28;20184;-69
2023/04/24 08:25:52;;;;;;;2.40;1.50;;;14.00;37.20;;;;;;5008189;28;20822;-69
2023/04/24 08:28:20;;;;;;;1.90;1.23;;;14.20;34.30;;;;;;5009767;28;20319;-72
2023/04/24 08:30:46;;;;;;;2.20;1.50;;;13.50;36.40;;;;;;5010034;28;20178;-72
2023/04/24 08:33:13;;;;;;;1.90;1.30;;;13.30;36.60;;;;;;5011615;28;20415;-72
2023/04/24 08:35:39;;;;;;;2.00;1.17;;;12.60;35.60;;;;;;5016328;28;20802;-73
2023/04/24 08:38:05;;;;;;;2.30;1.27;;;12.40;36.20;;;;;;5013943;28;20505;-70
2023/04/24 08:40:34;;;;;;;2.10;1.27;;;12.40;37.60;;;;;;5017310;28;20190;-72
2023/04/24 08:43:00;;;;;;;2.10;1.20;;;12.60;35.60;;;;;;5014217;28;20448;-71
2023/04/24 08:45:26;;;;;;;2.20;1.30;;;12.70;36.10;;;;;;5014696;28;20839;-69
2023/04/24 08:47:55;;;;;;;2.10;1.30;;;12.40;35.50;;;;;;5015802;28;20500;-71
2023/04/24 08:50:21;;;;;;;2.17;1.30;;;12.30;36.10;;;;;;5022733;28;20534;-70
2023/04/24 08:52:50;;;;;;;2.00;1.20;;;12.90;35.00;;;;;;5012372;28;20513;-69
2023/04/24 08:55:20;;;;;;;2.53;1.60;;;13.20;34.40;;;;;;5009273;28;20448;-69
2023/04/24 08:57:50;;;;;;;2.10;1.20;;;12.80;34.40;;;;;;5013183;28;20470;-72
2023/04/24 09:00:16;;;;;;;2.10;1.30;;;12.30;33.50;;;;;;5016748;28;20814;-70
2023/04/24 09:02:43;;;;;;;2.20;1.30;;;12.40;34.60;;;;;;5006187;28;20891;-68
2023/04/24 09:05:10;;;;;;;2.10;1.20;;;12.40;33.50;;;;;;5013406;28;20435;-71
2023/04/24 09:07:40;;;;;;;2.00;1.20;;;12.40;34.60;;;;;;5020128;28;20489;-70
2023/04/24 09:10:07;;;;;;;2.20;1.40;;;12.60;32.90;;;;;;5012188;28;20946;-70
2023/04/24 09:12:34;;;;;;;2.00;1.10;;;12.30;33.30;;;;;;5010125;28;20930;-68
2023/04/24 09:15:00;;;;;;;2.10;1.27;;;12.90;34.00;;;;;;5013211;28;20438;-71
2023/04/24 09:17:28;;;;;;;2.20;1.40;;;13.20;33.00;;;;;;5011456;28;20480;-69
2023/04/24 09:19:53;;;;;;;2.00;1.20;;;13.20;32.20;;;;;;5011647;28;20526;-68
2023/04/24 09:22:20;;;;;;;2.10;1.33;;;13.40;31.30;;;;;;5020431;28;20569;-69
2023/04/24 09:24:47;;;;;;;2.00;1.30;;;13.20;33.00;;;;;;5013801;28;20189;-68
2023/04/24 09:27:14;;;;;;;2.00;1.30;;;13.40;30.90;;;;;;5012186;28;20860;-70
2023/04/24 09:29:55;;;;;;;2.00;1.33;;;13.50;31.20;;;;;;5008187;28;20428;-72
2023/04/24 09:32:22;;;;;;;1.80;1.10;;;13.40;29.80;;;;;;5013871;28;20797;-70
2023/04/24 09:34:48;;;;;;;2.10;1.30;;;13.00;31.20;;;;;;5011366;28;20436;-69
2023/04/24 09:37:30;;;;;;;1.90;1.20;;;13.10;31.00;;;;;;5006711;28;20982;-70
2023/04/24 09:40:19;;;;;;;2.00;1.30;;;12.90;32.50;;;;;;5005832;28;20593;-69
2023/04/24 09:43:00;;;;;;;1.80;1.20;;;13.20;32.20;;;;;;5014736;28;20429;-69
2023/04/24 09:45:36;;;;;;;2.00;1.30;;;13.60;32.50;;;;;;5009488;28;20436;-71
2023/04/24 09:48:02;;;;;;;2.10;1.30;;;13.20;32.30;;;;;;5009089;28;20500;-72
2023/04/24 09:50:31;;;;;;;1.90;1.30;;;13.70;30.90;;;;;;5010716;28;20429;-70
2023/04/24 09:53:08;;;;;;;1.80;1.20;;;13.60;30.60;;;;;;5023016;28;20430;-69
2023/04/24 09:55:40;;;;;;;2.00;1.40;;;13.60;29.80;;;;;;5010985;28;20530;-69
2023/04/24 09:58:08;;;;;;;2.13;1.40;;;13.10;31.20;;;;;;5007912;28;20535;-69
2023/04/24 10:00:33;;;;;;;1.90;1.20;;;13.30;31.70;;;;;;5001483;28;20472;-68
2023/04/24 10:03:00;;;;;;;1.90;1.20;;;14.30;30.30;;;;;;5016777;28;20870;-69
2023/04/24 10:05:34;;;;;;;2.03;1.33;;;14.70;30.00;;;;;;5009858;28;20201;-69
2023/04/24 10:08:05;;;;;;;2.10;1.50;;;14.90;29.10;;;;;;5004948;28;20483;-68
2023/04/24 10:10:32;;;;;;;1.90;1.20;;;15.10;28.00;;;;;;5011884;28;20438;-69
2023/04/24 10:12:58;;;;;;;2.00;1.30;;;14.40;28.60;;;;;;5013715;28;20441;-70
2023/04/24 10:15:25;;;;;;;1.90;1.20;;;14.70;29.50;;;;;;5005545;28;20440;-70
2023/04/24 10:17:52;;;;;;;1.90;1.20;;;14.60;29.30;;;;;;5006279;28;20988;-69
2023/04/24 10:20:23;;;;;;;2.20;1.40;;;14.30;29.80;;;;;;5008735;28;20432;-70
2023/04/24 10:22:50;;;;;;;1.90;1.20;;;14.00;31.40;;;;;;5005640;28;20851;-68
2023/04/24 10:25:21;;;;;;;2.00;1.37;;;14.40;28.60;;;;;;5005923;28;20471;-68
2023/04/24 10:27:47;;;;;;;2.30;1.50;;;14.70;27.40;;;;;;5012149;28;20464;-68
2023/04/24 10:30:14;;;;;;;2.77;1.50;;;14.20;27.20;;;;;;5010819;28;20440;-69
2023/04/24 10:32:40;;;;;;;3.33;1.67;;;14.30;28.20;;;;;;5021285;28;20435;-69
2023/04/24 10:35:14;;;;;;;2.00;1.30;;;14.40;26.60;;;;;;5020910;28;20460;-69
2023/04/24 10:37:48;;;;;;;2.20;1.50;;;14.50;25.90;;;;;;5007263;28;20452;-69
2023/04/24 10:40:24;;;;;;;1.90;1.10;;;14.40;27.30;;;;;;5010948;28;20427;-69
2023/04/24 10:42:53;;;;;;;2.10;1.50;;;15.00;24.80;;;;;;5003788;28;20419;-69
2023/04/24 10:45:21;;;;;;;2.00;1.30;;;14.40;25.50;;;;;;5010848;28;20439;-69
2023/04/24 10:47:56;;;;;;;2.00;1.30;;;15.00;24.90;;;;;;5006831;28;20839;-69
2023/04/24 10:50:22;;;;;;;1.97;1.20;;;15.30;23.90;;;;;;5008331;28;20437;-69
2023/04/24 10:52:51;;;;;;;2.00;1.30;;;15.10;24.00;;;;;;5010853;28;20440;-69
2023/04/24 10:55:37;;;;;;;2.00;1.30;;;14.50;24.90;;;;;;5006101;28;20236;-68
2023/04/24 10:58:03;;;;;;;1.93;1.20;;;14.10;25.70;;;;;;5004110;28;20610;-66
2023/04/24 11:00:29;;;;;;;3.30;1.67;;;13.90;26.20;;;;;;5005707;28;20501;-67
2023/04/24 11:02:55;;;;;;;5.07;2.70;;;14.10;26.40;;;;;;5018061;28;20963;-68
2023/04/24 11:05:22;;;;;;;3.17;1.40;;;13.80;27.10;;;;;;5008829;28;20188;-68
2023/04/24 11:08:11;;;;;;;2.10;1.40;;;13.90;28.20;;;;;;5009171;28;20469;-68
2023/04/24 11:10:44;;;;;;;2.00;1.20;;;13.70;28.70;;;;;;5015252;28;20434;-69
2023/04/24 11:13:10;;;;;;;2.00;1.20;;;12.90;29.90;;;;;;5008642;28;20404;-69
2023/04/24 11:15:36;;;;;;;2.00;1.23;;;12.90;30.20;;;;;;5012176;28;20509;-69
2023/04/24 11:18:01;;;;;;;2.03;1.30;;;13.40;30.00;;;;;;5011942;28;20197;-69
2023/04/24 11:20:27;;;;;;;2.00;1.23;;;13.90;30.10;;;;;;5006608;28;20184;-72
2023/04/24 11:22:54;;;;;;;2.20;1.43;;;13.40;29.90;;;;;;5014877;28;20190;-70
2023/04/24 11:25:22;;;;;;;2.00;1.30;;;13.30;29.00;;;;;;5013911;28;20215;-71
2023/04/24 11:27:49;;;;;;;2.10;1.30;;;13.70;27.90;;;;;;5007708;28;20479;-68
2023/04/24 11:30:20;;;;;;;2.00;1.20;;;14.40;27.40;;;;;;5010115;28;20439;-70
2023/04/24 11:32:51;;;;;;;1.97;1.30;;;13.90;28.40;;;;;;5010940;28;20435;-70
2023/04/24 11:35:24;;;;;;;2.43;1.33;;;13.90;28.80;;;;;;5010157;28;20953;-70
2023/04/24 11:37:52;;;;;;;1.90;1.20;;;14.80;27.70;;;;;;5011742;28;20897;-69
2023/04/24 11:40:20;;;;;;;1.97;1.33;;;15.30;27.10;;;;;;5009039;28;20558;-71
2023/04/24 11:42:51;;;;;;;1.90;1.20;;;15.60;26.40;;;;;;5009694;28;20448;-70
2023/04/24 11:45:23;;;;;;;2.00;1.30;;;14.60;26.00;;;;;;5008623;28;20845;-70
2023/04/24 11:47:49;;;;;;;1.97;1.30;;;14.20;27.60;;;;;;5003128;28;20488;-70
2023/04/24 11:50:21;;;;;;;1.97;1.30;;;14.70;26.70;;;;;;5005853;28;20434;-70
2023/04/24 11:52:48;;;;;;;1.90;1.30;;;14.90;26.80;;;;;;5008781;28;20485;-70
2023/04/24 11:55:14;;;;;;;1.90;1.20;;;14.20;26.90;;;;;;5009172;28;20439;-70
2023/04/24 11:57:47;;;;;;;2.00;1.20;;;13.50;28.60;;;;;;5009931;28;21037;-70
2023/04/24 12:00:18;;;;;;;2.00;1.30;;;13.70;28.30;;;;;;5026786;28;20399;-68
2023/04/24 12:02:44;;;;;;;2.00;1.30;;;13.80;28.40;;;;;;5012350;28;20826;-69
2023/04/24 12:05:18;;;;;;;2.10;1.30;;;13.60;28.90;;;;;;5008235;28;20523;-69
2023/04/24 12:07:44;;;;;;;2.20;1.43;;;14.00;28.10;;;;;;5007859;28;20483;-70
2023/04/24 12:10:10;;;;;;;2.10;1.30;;;13.80;28.20;;;;;;5015794;28;20431;-69
2023/04/24 12:12:36;;;;;;;2.40;1.73;;;13.70;28.40;;;;;;5012381;28;20189;-69
2023/04/24 12:15:06;;;;;;;2.10;1.37;;;14.00;28.30;;;;;;5010994;28;21027;-69
2023/04/24 12:17:33;;;;;;;1.97;1.20;;;13.90;28.10;;;;;;5009330;28;20205;-69
2023/04/24 12:20:08;;;;;;;2.07;1.30;;;13.60;29.10;;;;;;5013349;28;20454;-69
2023/04/24 12:22:54;;;;;;;2.20;1.40;;;13.30;29.20;;;;;;5005363;28;21046;-70
2023/04/24 12:25:21;;;;;;;2.10;1.30;;;13.30;30.60;;;;;;5011735;28;20786;-69
2023/04/24 12:27:52;;;;;;;2.00;1.20;;;12.80;32.10;;;;;;5012801;28;20468;-69
2023/04/24 12:30:19;;;;;;;1.90;1.10;;;13.40;30.00;;;;;;5011692;28;20436;-68
2023/04/24 12:32:47;;;;;;;2.00;1.30;;;13.90;27.90;;;;;;5012722;28;20527;-70
2023/04/24 12:35:13;;;;;;;1.90;1.23;;;13.90;27.90;;;;;;5012842;28;20450;-68
2023/04/24 12:37:41;;;;;;;1.90;1.27;;;14.60;27.00;;;;;;5012226;28;20526;-70
2023/04/24 12:40:10;;;;;;;2.00;1.30;;;15.60;26.50;;;;;;5011738;28;20497;-69
2023/04/24 12:42:41;;;;;;;2.00;1.30;;;15.70;24.80;;;;;;5014138;28;20494;-69
2023/04/24 12:45:07;;;;;;;2.00;1.33;;;15.00;25.60;;;;;;5013061;28;20513;-70
2023/04/24 12:47:34;;;;;;;2.10;1.33;;;15.40;25.20;;;;;;5013743;28;20461;-70